Estación Meteorológica Peña el Pijo (Robertgarden) [ 01/30/23 15:06:39 CET ]

Fecha Hora Presion(HPa) Temp (°C) Humedad % Rocio (°C) Viento ( m/s) Direccion Lluvia 1Hora(mm) Lluvia 24H(mm) LLuvia Total(mm)
2010-Sep-29 01:01:12 1014.100 8.9 75 4.7         160.58
2010-Sep-29 02:01:16 1013.900 9.1 77 5.2         160.58
2010-Sep-29 03:04:32 1013.800 8.9 77 5.0         160.58
2010-Sep-29 04:03:20 1013.500 8.4 82 5.5         160.58
2010-Sep-29 05:01:16 1013.300 9.1 79 5.6         160.58
2010-Sep-29 06:01:12 1013.300 7.9 83 5.2         160.58
2010-Sep-29 07:01:14 1013.400 7.9 83 5.2         160.58
2010-Sep-29 08:01:11 1013.700 7.6 84 5.1         160.58
2010-Sep-29 09:01:11 1013.900 7.6 86 5.4         160.58
2010-Sep-29 10:01:12 1014.300 15.9 68 10.0         160.58
2010-Sep-29 11:01:14 1014.300 21.0 50 10.2         160.58
2010-Sep-29 12:01:12 1013.900 24.3 33 6.9         160.58
2010-Sep-29 13:01:13 1013.700 26.9 27 6.2         160.58
2010-Sep-29 14:01:13 1013.400 28.8 22 4.8         160.58
2010-Sep-29 15:01:19 1013.200 28.6 23 5.2         160.58
2010-Sep-29 16:01:14 1012.600 27.4 26 6.0         160.58
2010-Sep-29 17:01:14 1012.400 26.6 27 5.9         160.58
2010-Sep-29 18:01:16 1012.200 24.9 29 5.6         160.58
2010-Sep-29 19:01:14 1012.800 21.6 35 5.4         160.58
2010-Sep-29 20:01:11 1013.000 19.5 37 4.3         160.58
2010-Sep-29 21:01:17 1013.700 14.9 52 5.1         160.58
2010-Sep-29 22:01:13 1014.200 12.3 62 5.2         160.58
2010-Sep-29 23:01:11 1014.500 10.8 66 4.7         160.58

Temperatura Máxima:28°    Temperatura Mínima:
Presión Máxima:1014.500 Hpa    Presión Mínima:1012.200 Hpa


Volver